Time;durP1;ratioP1;P1;durP2;ratioP2;P2;SDS_P1;SDS_P2;PMS_P1;PMS_P2;Temp;Humidity;BMP_temperature;BMP_pressure;BME280_temperature;BME280_humidity;BME280_pressure;Samples;Min_cycle;Max_cycle;Signal;HPM_P1;HPM_P2
2020/12/08 00:00:42;;;;;;;19.70;13.33;;;;;;;;;;5071923;28;20250;-74
2020/12/08 00:03:10;;;;;;;16.83;11.80;;;;;;;;;;5071525;28;20196;-74
2020/12/08 00:05:37;;;;;;;15.40;10.67;;;3.30;99.90;;;;;;5071768;28;20209;-75
2020/12/08 00:08:06;;;;;;;16.80;11.60;;;;;;;;;;5071649;28;20208;-75
2020/12/08 00:10:33;;;;;;;16.60;11.23;;;;;;;;;;5071326;28;20200;-74
2020/12/08 00:13:00;;;;;;;17.00;11.60;;;;;;;;;;5051246;28;20205;-74
2020/12/08 00:15:27;;;;;;;14.23;10.90;;;;;;;;;;5065922;28;20540;-75
2020/12/08 00:17:55;;;;;;;16.20;11.13;;;;;;;;;;5071106;28;20228;-74
2020/12/08 00:20:23;;;;;;;17.23;11.63;;;;;;;;;;5070802;28;20258;-74
2020/12/08 00:22:50;;;;;;;16.87;11.33;;;;;;;;;;5071383;28;20720;-75
2020/12/08 00:25:17;;;;;;;13.60;10.13;;;;;;;;;;5069542;28;20201;-74
2020/12/08 00:27:46;;;;;;;15.33;10.57;;;;;;;;;;5070801;28;20241;-75
2020/12/08 00:30:14;;;;;;;17.90;11.00;;;;;;;;;;5064610;28;20205;-75
2020/12/08 00:32:42;;;;;;;16.47;10.67;;;;;;;;;;5051224;28;20217;-74
2020/12/08 00:35:10;;;;;;;14.97;10.70;;;;;;;;;;5052239;28;20350;-75
2020/12/08 00:37:39;;;;;;;15.83;10.93;;;;;;;;;;5054839;28;20568;-74
2020/12/08 00:40:05;;;;;;;17.33;10.80;;;;;;;;;;5054890;28;20204;-74
2020/12/08 00:42:34;;;;;;;16.37;11.10;;;;;;;;;;5054531;28;20205;-74
2020/12/08 00:45:00;;;;;;;19.17;11.13;;;;;;;;;;5055315;28;20194;-74
2020/12/08 00:47:28;;;;;;;15.10;10.50;;;;;;;;;;5054968;28;20328;-75
2020/12/08 00:49:55;;;;;;;18.23;11.97;;;2.20;99.90;;;;;;5055281;28;20213;-74
2020/12/08 00:52:23;;;;;;;17.30;11.80;;;;;;;;;;5055153;28;20255;-75
2020/12/08 00:54:50;;;;;;;18.07;12.07;;;;;;;;;;5054881;28;20229;-74
2020/12/08 00:57:21;;;;;;;16.87;11.77;;;;;;;;;;5054890;28;20220;-74
2020/12/08 00:59:48;;;;;;;18.57;12.07;;;;;;;;;;5055050;28;20210;-75
2020/12/08 01:02:17;;;;;;;17.40;11.30;;;;;;;;;;5062698;28;20589;-74
2020/12/08 01:04:45;;;;;;;19.33;12.00;;;;;;;;;;5071996;28;20252;-74
2020/12/08 01:07:13;;;;;;;16.70;11.27;;;;;;;;;;5074901;28;20252;-75
2020/12/08 01:09:40;;;;;;;16.87;11.77;;;;;;;;;;5060854;28;20257;-74
2020/12/08 01:12:09;;;;;;;17.70;12.10;;;;;;;;;;5074330;28;20214;-74
2020/12/08 01:14:35;;;;;;;19.30;12.17;;;;;;;;;;5071816;28;20232;-74
2020/12/08 01:17:04;;;;;;;17.67;11.43;;;;;;;;;;5054883;28;20204;-74
2020/12/08 01:19:31;;;;;;;16.73;11.87;;;1.70;99.90;;;;;;5074159;28;20199;-74
2020/12/08 01:21:58;;;;;;;18.30;12.07;;;;;;;;;;5059947;28;20196;-74
2020/12/08 01:24:25;;;;;;;18.07;11.87;;;;;;;;;;5054240;28;20207;-75
2020/12/08 01:26:52;;;;;;;18.77;12.10;;;;;;;;;;5076302;28;20548;-74
2020/12/08 01:29:20;;;;;;;20.60;12.93;;;1.60;99.90;;;;;;5094578;28;20674;-74
2020/12/08 01:31:47;;;;;;;20.63;12.77;;;;;;;;;;5094563;28;20207;-74
2020/12/08 01:34:14;;;;;;;19.57;12.63;;;;;;;;;;5094736;28;20218;-74
2020/12/08 01:36:41;;;;;;;17.50;11.80;;;;;;;;;;5094208;28;20199;-74
2020/12/08 01:39:09;;;;;;;20.63;12.77;;;;;;;;;;5079563;28;20659;-74
2020/12/08 01:41:35;;;;;;;23.33;13.83;;;1.50;99.90;;;;;;5059807;28;20203;-74
2020/12/08 01:44:02;;;;;;;21.57;13.47;;;;;;;;;;5070250;28;20199;-74
2020/12/08 01:46:33;;;;;;;21.23;13.50;;;;;;;;;;5063332;28;20249;-74
2020/12/08 01:49:00;;;;;;;19.20;12.47;;;;;;;;;;5074029;28;20715;-74
2020/12/08 01:51:28;;;;;;;18.80;12.73;;;;;;;;;;5074304;28;20569;-74
2020/12/08 01:53:55;;;;;;;20.27;12.77;;;;;;;;;;5073156;28;20222;-74
2020/12/08 01:56:22;;;;;;;22.13;13.27;;;;;;;;;;5073175;28;20225;-74
2020/12/08 01:58:50;;;;;;;21.37;13.27;;;;;;;;;;5073773;28;20245;-74
2020/12/08 02:01:17;;;;;;;20.33;13.07;;;;;;;;;;5073763;28;20210;-74
2020/12/08 02:03:49;;;;;;;20.93;13.20;;;;;;;;;;5073190;28;20195;-74
2020/12/08 02:06:17;;;;;;;24.37;14.93;;;;;;;;;;5073700;28;20195;-74
2020/12/08 02:08:44;;;;;;;21.10;13.93;;;;;;;;;;5055343;28;20198;-74
2020/12/08 02:11:11;;;;;;;20.50;13.03;;;;;;;;;;5073532;28;20215;-74
2020/12/08 02:13:39;;;;;;;22.00;13.13;;;;;;;;;;5073839;28;20203;-74
2020/12/08 02:16:06;;;;;;;20.30;13.70;;;;;;;;;;5058055;28;20208;-74
2020/12/08 02:18:34;;;;;;;21.37;13.30;;;;;;;;;;5060443;28;20211;-74
2020/12/08 02:21:03;;;;;;;23.67;12.83;;;;;;;;;;5071570;28;20654;-74
2020/12/08 02:23:30;;;;;;;20.37;12.40;;;;;;;;;;5071704;28;20206;-74
2020/12/08 02:25:59;;;;;;;22.27;13.67;;;;;;;;;;5071678;28;20256;-74
2020/12/08 02:28:26;;;;;;;23.90;13.70;;;;;;;;;;5072569;28;20231;-74
2020/12/08 02:30:54;;;;;;;24.23;14.10;;;;;;;;;;5073119;28;20199;-74
2020/12/08 02:33:23;;;;;;;22.43;13.57;;;;;;;;;;5073065;28;20253;-75
2020/12/08 02:35:50;;;;;;;23.13;13.53;;;;;;;;;;5070653;28;20218;-74
2020/12/08 02:38:19;;;;;;;24.70;13.67;;;;;;;;;;5068908;28;20248;-74
2020/12/08 02:40:47;;;;;;;21.77;12.80;;;;;;;;;;5052951;28;20257;-74
2020/12/08 02:43:14;;;;;;;19.93;12.50;;;;;;;;;;5052899;28;20215;-74
2020/12/08 02:45:42;;;;;;;20.77;12.87;;;;;;;;;;5052185;28;20662;-74
2020/12/08 02:48:10;;;;;;;21.10;13.13;;;;;;;;;;5052891;28;20200;-74
2020/12/08 02:50:38;;;;;;;21.87;13.80;;;;;;;;;;5052997;28;20211;-74
2020/12/08 02:53:05;;;;;;;23.17;13.97;;;;;;;;;;5057777;28;20689;-74
2020/12/08 02:55:34;;;;;;;21.23;13.60;;;;;;;;;;5072076;28;20226;-74
2020/12/08 02:58:01;;;;;;;22.93;13.80;;;;;;;;;;5063501;28;20206;-74
2020/12/08 03:00:29;;;;;;;24.33;14.23;;;;;;;;;;5072457;28;20206;-74
2020/12/08 03:02:56;;;;;;;22.53;13.70;;;;;;;;;;5072303;28;20700;-74
2020/12/08 03:05:24;;;;;;;22.27;13.40;;;;;;;;;;5072591;28;20275;-74
2020/12/08 03:07:51;;;;;;;22.77;14.20;;;;;;;;;;5072029;28;20266;-74
2020/12/08 03:10:19;;;;;;;22.80;13.70;;;;;;;;;;5072350;28;20695;-74
2020/12/08 03:12:47;;;;;;;22.43;13.40;;;;;;;;;;5061163;28;20203;-74
2020/12/08 03:15:14;;;;;;;23.33;14.10;;;;;;;;;;5068463;28;20295;-74
2020/12/08 03:17:42;;;;;;;23.30;13.87;;;;;;;;;;5072521;28;20206;-74
2020/12/08 03:20:09;;;;;;;22.77;13.93;;;;;;;;;;5072564;28;20203;-75
2020/12/08 03:22:36;;;;;;;23.23;14.20;;;;;;;;;;5071812;28;20264;-74
2020/12/08 03:25:03;;;;;;;24.93;14.60;;;;;;;;;;5071986;28;20601;-74
2020/12/08 03:27:31;;;;;;;22.50;14.40;;;;;;;;;;5080705;28;20237;-74
2020/12/08 03:29:59;;;;;;;22.43;13.77;;;;;;;;;;5092429;28;20232;-74
2020/12/08 03:32:26;;;;;;;23.27;14.93;;;;;;;;;;5092050;28;20605;-74
2020/12/08 03:34:53;;;;;;;24.00;13.47;;;;;;;;;;5092012;28;20528;-74
2020/12/08 03:37:21;;;;;;;21.10;13.40;;;;;;;;;;5092071;28;20617;-74
2020/12/08 03:39:48;;;;;;;23.10;13.90;;;;;;;;;;5071876;28;20211;-74
2020/12/08 03:42:14;;;;;;;21.07;13.63;;;;;;;;;;5071843;28;20266;-74
2020/12/08 03:44:42;;;;;;;20.13;13.50;;;;;;;;;;5071937;28;20206;-74
2020/12/08 03:47:10;;;;;;;21.47;13.73;;;;;;;;;;5064193;28;20210;-74
2020/12/08 03:49:37;;;;;;;21.57;12.97;;;;;;;;;;5050797;28;20211;-74
2020/12/08 03:52:04;;;;;;;21.67;13.53;;;;;;;;;;5052240;28;20199;-73
2020/12/08 03:54:31;;;;;;;19.83;13.47;;;;;;;;;;5051651;28;20220;-73
2020/12/08 03:56:57;;;;;;;22.73;14.13;;;1.10;99.90;;;;;;5068709;28;20215;-74
2020/12/08 03:59:23;;;;;;;23.53;13.97;;;1.10;99.90;;;;;;5072063;28;20236;-73
2020/12/08 04:01:50;;;;;;;22.13;13.47;;;1.10;99.90;;;;;;5071546;28;20203;-74
2020/12/08 04:04:18;;;;;;;20.23;13.03;;;1.00;99.90;;;;;;5070783;28;20527;-74
2020/12/08 04:06:45;;;;;;;19.30;12.83;;;0.90;99.90;;;;;;5071481;28;20218;-74
2020/12/08 04:09:12;;;;;;;21.83;13.20;;;0.90;99.90;;;;;;5071370;28;20195;-74
2020/12/08 04:11:38;;;;;;;21.63;13.63;;;1.00;99.90;;;;;;5070083;28;20206;-74
2020/12/08 04:14:04;;;;;;;20.70;13.07;;;1.00;99.90;;;;;;5071617;28;20202;-74
2020/12/08 04:16:32;;;;;;;21.33;12.90;;;1.00;99.90;;;;;;5057562;28;20257;-74
2020/12/08 04:18:59;;;;;;;23.23;13.53;;;1.10;99.90;;;;;;5051703;28;20215;-74
2020/12/08 04:21:28;;;;;;;21.93;13.40;;;1.10;99.90;;;;;;5051906;28;20196;-74
2020/12/08 04:23:59;;;;;;;23.77;14.20;;;1.30;99.90;;;;;;5051536;28;20205;-74
2020/12/08 04:26:26;;;;;;;23.70;14.07;;;1.40;99.90;;;;;;5065004;28;20263;-74
2020/12/08 04:28:53;;;;;;;21.90;13.43;;;;;;;;;;5091645;28;20627;-74
2020/12/08 04:31:20;;;;;;;24.03;14.60;;;;;;;;;;5091807;28;20202;-74
2020/12/08 04:33:48;;;;;;;23.97;14.47;;;;;;;;;;5091361;28;20314;-74
2020/12/08 04:36:15;;;;;;;23.20;14.17;;;;;;;;;;5070850;28;20753;-74
2020/12/08 04:38:44;;;;;;;24.40;14.50;;;;;;;;;;5071582;28;20261;-74
2020/12/08 04:41:11;;;;;;;22.97;14.37;;;;;;;;;;5071615;28;20270;-74
2020/12/08 04:43:39;;;;;;;22.37;14.17;;;;;;;;;;5071336;28;20260;-74
2020/12/08 04:46:07;;;;;;;21.57;14.03;;;;;;;;;;5071703;28;20191;-74
2020/12/08 04:48:37;;;;;;;22.30;14.87;;;;;;;;;;5070906;28;20258;-74
2020/12/08 04:51:05;;;;;;;23.70;14.83;;;;;;;;;;5070369;28;20209;-74
2020/12/08 04:53:32;;;;;;;23.60;14.43;;;;;;;;;;5071372;28;20202;-74
2020/12/08 04:56:01;;;;;;;23.63;14.13;;;;;;;;;;5070632;28;20220;-74
2020/12/08 04:58:29;;;;;;;22.90;14.77;;;;;;;;;;5071465;28;20249;-74
2020/12/08 05:00:57;;;;;;;23.33;14.40;;;;;;;;;;5071056;28;20208;-74
2020/12/08 05:03:25;;;;;;;22.77;14.13;;;;;;;;;;5067009;28;20255;-74
2020/12/08 05:05:53;;;;;;;22.03;13.83;;;;;;;;;;5051102;28;20196;-74
2020/12/08 05:08:21;;;;;;;23.40;14.50;;;;;;;;;;5051188;28;20204;-74
2020/12/08 05:10:49;;;;;;;24.43;14.73;;;;;;;;;;5051183;28;20204;-74
2020/12/08 05:13:18;;;;;;;21.83;14.53;;;;;;;;;;5052971;28;20255;-74
2020/12/08 05:15:45;;;;;;;23.63;14.67;;;;;;;;;;5062457;28;20627;-74
2020/12/08 05:18:13;;;;;;;22.10;14.40;;;;;;;;;;5051119;28;20204;-74
2020/12/08 05:20:41;;;;;;;23.77;15.20;;;;;;;;;;5051389;28;20604;-74
2020/12/08 05:23:09;;;;;;;23.27;14.73;;;;;;;;;;5059128;28;20201;-74
2020/12/08 05:25:36;;;;;;;23.13;14.77;;;;;;;;;;5074623;28;20243;-74
2020/12/08 05:28:04;;;;;;;24.73;14.83;;;;;;;;;;5087437;28;20665;-73
2020/12/08 05:30:32;;;;;;;21.47;14.57;;;;;;;;;;5094797;28;20272;-74
2020/12/08 05:33:02;;;;;;;21.83;14.30;;;;;;;;;;5075419;28;20211;-74
2020/12/08 05:35:31;;;;;;;23.07;14.43;;;;;;;;;;5074280;28;20226;-74
2020/12/08 05:37:59;;;;;;;22.60;14.10;;;;;;;;;;5073866;28;20207;-74
2020/12/08 05:40:28;;;;;;;21.63;14.63;;;;;;;;;;5062564;28;20200;-75
2020/12/08 05:42:56;;;;;;;20.33;14.03;;;;;;;;;;5073908;28;20694;-74
2020/12/08 05:45:25;;;;;;;19.77;13.97;;;;;;;;;;5072181;28;20196;-74
2020/12/08 05:47:55;;;;;;;22.10;14.53;;;;;;;;;;5074084;28;20230;-74
2020/12/08 05:50:23;;;;;;;21.67;13.90;;;;;;;;;;5074122;28;20548;-74
2020/12/08 05:52:52;;;;;;;21.33;14.60;;;;;;;;;;5066086;28;20200;-74
2020/12/08 05:55:21;;;;;;;22.93;14.63;;;;;;;;;;5070238;28;20216;-74
2020/12/08 05:57:50;;;;;;;23.27;14.33;;;;;;;;;;5074016;28;20249;-74
2020/12/08 06:00:25;;;;;;;25.17;14.97;;;;;;;;;;5073339;28;20195;-74
2020/12/08 06:02:54;;;;;;;23.80;14.57;;;;;;;;;;5053898;28;20686;-75
2020/12/08 06:05:29;;;;;;;21.30;14.20;;;;;;;;;;5053519;28;20201;-74
2020/12/08 06:07:57;;;;;;;20.57;14.07;;;;;;;;;;5054007;28;20708;-74
2020/12/08 06:10:25;;;;;;;23.37;14.83;;;;;;;;;;5067598;28;20214;-75
2020/12/08 06:13:04;;;;;;;22.07;15.03;;;;;;;;;;5056110;28;20677;-75
2020/12/08 06:15:42;;;;;;;22.57;14.90;;;;;;;;;;5072447;28;20262;-75
2020/12/08 06:18:11;;;;;;;21.27;14.53;;;;;;;;;;5070774;28;20203;-74
2020/12/08 06:20:40;;;;;;;23.13;14.77;;;;;;;;;;5073269;28;20257;-75
2020/12/08 06:23:09;;;;;;;23.40;14.90;;;;;;;;;;5070376;28;20207;-74
2020/12/08 06:25:37;;;;;;;24.23;15.10;;;;;;;;;;5062999;28;20196;-74
2020/12/08 06:28:07;;;;;;;21.50;14.93;;;;;;;;;;5066599;28;20375;-75
2020/12/08 06:30:38;;;;;;;24.40;15.33;;;;;;;;;;5072097;28;20197;-74
2020/12/08 06:33:07;;;;;;;22.30;15.37;;;;;;;;;;5070718;28;20295;-75
2020/12/08 06:35:36;;;;;;;23.20;14.77;;;;;;;;;;5069911;28;20219;-75
2020/12/08 06:38:05;;;;;;;24.40;15.90;;;;;;;;;;5072459;28;20197;-75
2020/12/08 06:40:33;;;;;;;22.13;15.00;;;;;;;;;;5068703;28;20250;-75
2020/12/08 06:43:01;;;;;;;20.97;15.23;;;;;;;;;;5063596;28;20249;-75
2020/12/08 06:45:29;;;;;;;22.57;14.33;;;;;;;;;;5053451;28;20209;-74
2020/12/08 06:47:57;;;;;;;20.50;14.33;;;;;;;;;;5071925;28;20261;-74
2020/12/08 06:50:26;;;;;;;22.73;14.97;;;;;;;;;;5069668;28;20195;-74
2020/12/08 06:52:59;;;;;;;23.17;14.90;;;;;;;;;;5070373;28;20194;-74
2020/12/08 06:55:28;;;;;;;24.60;14.93;;;;;;;;;;5070445;28;20248;-74
2020/12/08 06:57:56;;;;;;;22.20;14.20;;;;;;;;;;5066483;28;20207;-74
2020/12/08 07:00:27;;;;;;;24.50;17.23;;;;;;;;;;5068671;28;20671;-75
2020/12/08 07:02:55;;;;;;;20.77;13.87;;;;;;;;;;5056310;28;20246;-74
2020/12/08 07:05:25;;;;;;;23.27;14.40;;;;;;;;;;5055856;28;20253;-74
2020/12/08 07:07:52;;;;;;;19.57;13.67;;;;;;;;;;5066641;28;20654;-74
2020/12/08 07:10:22;;;;;;;21.47;14.03;;;;;;;;;;5060595;28;20199;-75
2020/12/08 07:12:51;;;;;;;22.80;14.33;;;;;;;;;;5067750;28;20567;-74
2020/12/08 07:15:19;;;;;;;22.37;14.07;;;;;;;;;;5055262;28;20207;-75
2020/12/08 07:17:55;;;;;;;20.80;13.53;;;;;;;;;;5072301;28;20202;-74
2020/12/08 07:20:23;;;;;;;21.97;14.63;;;;;;;;;;5060960;28;20769;-74
2020/12/08 07:22:51;;;;;;;25.27;15.53;;;;;;;;;;5066707;28;20199;-74
2020/12/08 07:25:19;;;;;;;23.80;15.40;;;;;;;;;;5071400;28;20558;-74
2020/12/08 07:27:49;;;;;;;23.23;15.80;;;;;;;;;;5073969;28;20277;-74
2020/12/08 07:30:19;;;;;;;21.47;14.83;;;;;;;;;;5062891;28;20768;-74
2020/12/08 07:32:46;;;;;;;21.67;14.20;;;;;;;;;;5065255;28;20199;-74
2020/12/08 07:35:22;;;;;;;20.83;14.23;;;;;;;;;;5060340;28;20867;-74
2020/12/08 07:37:50;;;;;;;21.33;14.40;;;;;;;;;;5052288;28;20226;-75
2020/12/08 07:40:18;;;;;;;25.67;17.60;;;;;;;;;;5060357;28;20667;-75
2020/12/08 07:42:54;;;;;;;23.30;15.57;;;;;;;;;;5069847;28;20626;-75
2020/12/08 07:45:22;;;;;;;22.60;15.10;;;;;;;;;;5069994;28;20272;-75
2020/12/08 07:47:54;;;;;;;21.77;14.80;;;;;;;;;;5067327;28;20250;-75
2020/12/08 07:50:25;;;;;;;25.33;16.43;;;;;;;;;;5066288;28;20199;-75
2020/12/08 07:52:57;;;;;;;24.90;15.87;;;;;;;;;;5068176;28;20277;-75
2020/12/08 07:55:24;;;;;;;24.87;15.83;;;;;;;;;;5060416;28;20200;-75
2020/12/08 07:57:53;;;;;;;20.70;14.63;;;;;;;;;;5070642;28;20264;-75
2020/12/08 08:00:21;;;;;;;24.73;14.80;;;;;;;;;;5062440;28;20200;-74
2020/12/08 08:02:49;;;;;;;23.70;15.60;;;;;;;;;;5071329;28;20253;-75
2020/12/08 08:05:16;;;;;;;21.87;15.80;;;;;;;;;;5069745;28;20254;-75
2020/12/08 08:07:44;;;;;;;25.13;16.93;;;;;;;;;;5051751;28;20204;-75
2020/12/08 08:10:11;;;;;;;27.77;17.73;;;;;;;;;;5059845;28;20200;-75
2020/12/08 08:12:39;;;;;;;28.73;19.00;;;;;;;;;;5066743;28;20197;-75
2020/12/08 08:15:07;;;;;;;25.63;17.73;;;;;;;;;;5065803;28;20205;-75
2020/12/08 08:17:34;;;;;;;24.77;16.40;;;;;;;;;;5068911;28;20223;-75
2020/12/08 08:20:01;;;;;;;21.80;16.10;;;3.30;99.90;;;;;;5065207;28;20551;-75
2020/12/08 08:22:28;;;;;;;23.00;15.37;;;;;;;;;;5069285;28;20202;-75
2020/12/08 08:24:56;;;;;;;21.87;14.83;;;;;;;;;;5070449;28;20754;-74
2020/12/08 08:27:23;;;;;;;22.80;15.23;;;;;;;;;;5057596;28;20243;-74
2020/12/08 08:29:51;;;;;;;21.27;14.47;;;;;;;;;;5070054;28;20288;-74
2020/12/08 08:32:19;;;;;;;24.03;16.47;;;;;;;;;;5069353;28;20209;-74
2020/12/08 08:34:47;;;;;;;23.50;16.43;;;;;;;;;;5061727;28;20203;-74
2020/12/08 08:37:15;;;;;;;22.13;15.97;;;;;;;;;;5052265;28;20233;-75
2020/12/08 08:39:41;;;;;;;23.13;15.83;;;3.70;99.90;;;;;;5063860;28;20622;-75
2020/12/08 08:42:09;;;;;;;21.63;15.37;;;;;;;;;;5068659;28;20207;-75
2020/12/08 08:44:36;;;;;;;21.33;15.20;;;;;;;;;;5066947;28;20256;-75
2020/12/08 08:47:04;;;;;;;22.33;14.87;;;;;;;;;;5062630;28;20285;-75
2020/12/08 08:49:32;;;;;;;24.13;16.30;;;;;;;;;;5069954;28;20224;-74
2020/12/08 08:51:58;;;;;;;26.70;18.57;;;;;;;;;;5056981;28;20212;-74
2020/12/08 08:54:27;;;;;;;18.80;14.60;;;;;;;;;;5070390;28;20298;-75
2020/12/08 08:56:54;;;;;;;17.60;13.67;;;;;;;;;;5062946;28;20220;-75
2020/12/08 08:59:23;;;;;;;16.10;13.17;;;;;;;;;;5073106;28;20203;-74
2020/12/08 09:01:50;;;;;;;14.43;11.77;;;;;;;;;;5072121;28;20294;-74
2020/12/08 09:04:19;;;;;;;13.07;10.20;;;;;;;;;;5065845;28;20224;-75
2020/12/08 09:06:47;;;;;;;11.03;9.93;;;;;;;;;;5072606;28;20197;-74
2020/12/08 09:09:15;;;;;;;10.40;9.20;;;;;;;;;;5070300;28;20657;-75
2020/12/08 09:11:44;;;;;;;12.07;8.90;;;;;;;;;;5074057;28;20314;-75
2020/12/08 09:14:11;;;;;;;10.47;9.37;;;;;;;;;;5070364;28;20293;-75
2020/12/08 09:16:39;;;;;;;12.00;10.17;;;;;;;;;;5072383;28;20309;-75
2020/12/08 09:19:06;;;;;;;12.53;11.00;;;;;;;;;;5063722;28;20288;-75
2020/12/08 09:21:32;;;;;;;14.83;11.83;;;;;;;;;;5072243;28;20734;-75
2020/12/08 09:24:00;;;;;;;17.40;11.63;;;;;;;;;;5065811;28;20205;-75
2020/12/08 09:26:27;;;;;;;15.57;12.10;;;;;;;;;;5073127;28;20326;-75
2020/12/08 09:28:53;;;;;;;21.87;15.97;;;;;;;;;;5056960;28;20321;-75
2020/12/08 09:31:20;;;;;;;20.13;15.83;;;;;;;;;;5063823;28;20213;-75
2020/12/08 09:33:51;;;;;;;19.50;15.33;;;;;;;;;;5058915;28;20193;-75
2020/12/08 09:36:20;;;;;;;17.27;14.27;;;;;;;;;;5065529;28;20252;-75
2020/12/08 09:38:47;;;;;;;16.40;13.80;;;;;;;;;;5061347;28;20200;-75
2020/12/08 09:41:14;;;;;;;15.43;13.70;;;;;;;;;;5069418;28;20244;-75
2020/12/08 09:43:41;;;;;;;15.43;13.03;;;;;;;;;;5073291;28;20289;-75
2020/12/08 09:46:08;;;;;;;16.17;12.87;;;;;;;;;;5073260;28;20234;-75
2020/12/08 09:48:34;;;;;;;14.67;12.40;;;;;;;;;;5073470;28;20197;-75
2020/12/08 09:51:01;;;;;;;13.00;10.63;;;;;;;;;;5073520;28;20206;-74
2020/12/08 09:53:28;;;;;;;14.07;10.93;;;;;;;;;;5055896;28;20232;-75
2020/12/08 09:55:57;;;;;;;12.97;11.03;;;;;;;;;;5070830;28;20191;-75
2020/12/08 09:58:27;;;;;;;13.60;11.10;;;;;;;;;;5073066;28;20215;-75
2020/12/08 10:00:56;;;;;;;13.23;10.80;;;;;;;;;;5061410;28;20572;-75
2020/12/08 10:03:25;;;;;;;12.03;10.43;;;;;;;;;;5069435;28;20195;-74
2020/12/08 10:05:54;;;;;;;13.47;10.13;;;;;;;;;;5062258;28;20306;-76
2020/12/08 10:08:23;;;;;;;11.87;9.77;;;;;;;;;;5070660;28;20199;-75
2020/12/08 10:10:52;;;;;;;10.70;9.03;;;;;;;;;;5062163;28;20603;-75
2020/12/08 10:13:21;;;;;;;9.93;8.90;;;;;;;;;;5068485;28;20206;-75
2020/12/08 10:15:51;;;;;;;10.37;8.33;;;;;;;;;;5072778;28;20253;-75
2020/12/08 10:18:19;;;;;;;10.47;8.40;;;;;;;;;;5067434;28;20314;-75
2020/12/08 10:20:49;;;;;;;10.73;8.10;;;;;;;;;;5062842;28;20199;-76
2020/12/08 10:23:17;;;;;;;10.00;8.60;;;;;;;;;;5073226;28;20211;-75
2020/12/08 10:25:46;;;;;;;11.53;9.37;;;;;;;;;;5062045;28;20671;-75
2020/12/08 10:28:15;;;;;;;11.87;8.57;;;;;;;;;;5069217;28;20233;-75
2020/12/08 10:30:44;;;;;;;11.30;7.83;;;;;;;;;;5056715;28;20728;-75
2020/12/08 10:33:14;;;;;;;9.00;7.50;;;;;;;;;;5072742;28;20286;-75
2020/12/08 10:35:43;;;;;;;7.07;6.30;;;;;;;;;;5064732;28;20287;-75
2020/12/08 10:38:14;;;;;;;8.13;6.63;;;;;;;;;;5068980;28;20254;-75
2020/12/08 10:40:43;;;;;;;7.43;6.73;;;;;;;;;;5072729;28;20538;-75
2020/12/08 10:43:12;;;;;;;7.30;6.30;;;;;;;;;;5072311;28;20198;-75
2020/12/08 10:45:41;;;;;;;8.23;6.97;;;;;;;;;;5072647;28;20202;-75
2020/12/08 10:48:07;;;;;;;7.97;7.00;;;;;;;;;;5072310;28;20286;-75
2020/12/08 10:50:35;;;;;;;10.00;7.67;;;;;;;;;;5070544;28;20238;-75
2020/12/08 10:53:02;;;;;;;8.37;7.47;;;;;;;;;;5070672;28;20201;-74
2020/12/08 10:55:28;;;;;;;8.77;7.53;;;;;;;;;;5057797;28;20306;-75
2020/12/08 10:57:55;;;;;;;9.73;7.73;;;;;;;;;;5071825;28;20219;-75
2020/12/08 11:00:22;;;;;;;8.50;7.20;;;;;;;;;;5070758;28;20231;-75
2020/12/08 11:02:49;;;;;;;9.27;7.50;;;;;;;;;;5068392;28;20278;-75
2020/12/08 11:05:15;;;;;;;9.70;8.20;;;;;;;;;;5067945;28;20223;-76
2020/12/08 11:07:43;;;;;;;10.83;8.17;;;;;;;;;;5069924;28;20278;-76
2020/12/08 11:10:10;;;;;;;7.87;7.07;;;;;;;;;;5071359;28;20203;-76
2020/12/08 11:12:36;;;;;;;8.63;7.73;;;;;;;;;;5063350;28;20191;-76
2020/12/08 11:15:04;;;;;;;8.87;6.93;;;;;;;;;;5055459;28;20253;-76
2020/12/08 11:17:32;;;;;;;9.20;7.57;;;;;;;;;;5064590;28;20199;-76
2020/12/08 11:19:59;;;;;;;8.13;7.20;;;;;;;;;;5071419;28;20252;-76
2020/12/08 11:22:25;;;;;;;8.10;7.13;;;;;;;;;;5057525;28;20206;-76
2020/12/08 11:24:53;;;;;;;8.83;6.90;;;;;;;;;;5070972;28;20207;-76
2020/12/08 11:27:19;;;;;;;8.33;7.17;;;;;;;;;;5073090;28;20230;-76
2020/12/08 11:29:46;;;;;;;9.33;7.90;;;;;;;;;;5060003;28;20730;-76
2020/12/08 11:32:18;;;;;;;9.70;7.63;;;;;;;;;;5062705;28;20206;-75
2020/12/08 11:34:44;;;;;;;10.33;8.37;;;;;;;;;;5058588;28;20290;-75
2020/12/08 11:37:11;;;;;;;8.20;6.87;;;;;;;;;;5060665;28;20226;-75
2020/12/08 11:39:38;;;;;;;9.20;7.10;;;;;;;;;;5070323;28;20350;-76
2020/12/08 11:42:07;;;;;;;8.23;7.40;;;;;;;;;;5068426;28;20604;-76
2020/12/08 11:44:34;;;;;;;6.97;6.27;;;;;;;;;;5068093;28;20693;-76
2020/12/08 11:47:00;;;;;;;6.80;6.10;;;;;;;;;;5052245;28;20196;-76
2020/12/08 11:49:27;;;;;;;7.57;6.83;;;;;;;;;;5051498;28;20198;-76
2020/12/08 11:51:54;;;;;;;7.80;7.00;;;;;;;;;;5063942;28;20297;-76
2020/12/08 11:54:20;;;;;;;9.60;7.40;;;;;;;;;;5070956;28;20768;-76
2020/12/08 11:56:49;;;;;;;8.47;6.97;;;;;;;;;;5067250;28;20743;-76
2020/12/08 11:59:16;;;;;;;8.00;6.87;;;;;;;;;;5067588;28;20223;-76
2020/12/08 12:01:43;;;;;;;6.80;6.00;;;;;;;;;;5055447;28;20216;-75
2020/12/08 12:04:09;;;;;;;7.90;6.57;;;;;;;;;;5070756;28;20199;-75
2020/12/08 12:06:36;;;;;;;8.77;6.27;;;;;;;;;;5071182;28;20203;-76
2020/12/08 12:09:03;;;;;;;8.73;6.70;;;;;;;;;;5071139;28;20567;-76
2020/12/08 12:11:29;;;;;;;7.47;6.50;;;;;;;;;;5070489;28;20199;-76
2020/12/08 12:13:56;;;;;;;9.17;6.50;;;;;;;;;;5055594;28;20238;-75
2020/12/08 12:16:24;;;;;;;7.30;6.10;;;;;;;;;;5070748;28;20203;-75
2020/12/08 12:18:50;;;;;;;7.20;6.03;;;;;;;;;;5069564;28;20314;-76
2020/12/08 12:21:17;;;;;;;6.80;6.07;;;;;;;;;;5064755;28;20208;-76
2020/12/08 12:23:44;;;;;;;7.40;6.23;;;;;;;;;;5065335;28;20287;-76
2020/12/08 12:26:10;;;;;;;7.90;6.87;;;;;;;;;;5063514;28;20221;-76
2020/12/08 12:28:37;;;;;;;9.10;7.20;;;;;;;;;;5080556;28;20227;-76
2020/12/08 12:31:07;;;;;;;9.53;7.27;;;;;;;;;;5069394;28;20196;-76
2020/12/08 12:33:35;;;;;;;9.73;7.53;;;;;;;;;;5068091;28;20256;-76
2020/12/08 12:36:02;;;;;;;8.53;7.03;;;;;;;;;;5065779;28;20202;-76
2020/12/08 12:38:28;;;;;;;10.73;6.90;;;;;;;;;;5068433;28;20695;-76
2020/12/08 12:40:55;;;;;;;9.87;8.00;;;;;;;;;;5071749;28;20289;-76
2020/12/08 12:43:22;;;;;;;8.63;7.07;;;;;;;;;;5074416;28;20203;-76
2020/12/08 12:45:49;;;;;;;8.63;6.70;;;;;;;;;;5068501;28;20287;-76
2020/12/08 12:48:15;;;;;;;9.00;6.67;;;;;;;;;;5072540;28;20274;-76
2020/12/08 12:50:44;;;;;;;8.03;6.50;;;;;;;;;;5073124;28;20290;-75
2020/12/08 12:53:11;;;;;;;9.90;6.03;;;;;;;;;;5074185;28;20631;-76
2020/12/08 12:55:39;;;;;;;7.87;6.07;;;;;;;;;;5074176;28;20191;-76
2020/12/08 12:58:06;;;;;;;7.40;6.30;;;;;;;;;;5073472;28;20223;-76
2020/12/08 13:00:33;;;;;;;9.17;6.40;;;;;;;;;;5069066;28;20323;-76
2020/12/08 13:02:59;;;;;;;9.10;6.50;;;;;;;;;;5067455;28;20203;-75
2020/12/08 13:05:26;;;;;;;7.70;6.50;;;;;;;;;;5065880;28;20202;-76
2020/12/08 13:07:54;;;;;;;8.87;6.37;;;;;;;;;;5073801;28;20693;-76
2020/12/08 13:10:20;;;;;;;8.07;6.27;;;;;;;;;;5074507;28;20202;-76
2020/12/08 13:12:47;;;;;;;7.73;6.40;;;;;;;;;;5074670;28;20199;-75
2020/12/08 13:15:13;;;;;;;9.43;7.37;;;;;;;;;;5074362;28;20285;-76
2020/12/08 13:17:40;;;;;;;12.03;6.53;;;;;;;;;;5074826;28;20202;-76
2020/12/08 13:20:07;;;;;;;8.70;5.80;;;;;;;;;;5066539;28;20199;-76
2020/12/08 13:22:34;;;;;;;9.27;6.90;;;;;;;;;;5065997;28;20258;-75
2020/12/08 13:25:02;;;;;;;11.23;7.53;;;;;;;;;;5062051;28;20199;-75
2020/12/08 13:27:28;;;;;;;11.97;7.70;;;;;;;;;;5071109;28;20235;-75
2020/12/08 13:29:57;;;;;;;8.63;6.90;;;;;;;;;;5055776;28;20279;-75
2020/12/08 13:32:23;;;;;;;9.60;6.93;;;;;;;;;;5064920;28;20210;-75
2020/12/08 13:34:50;;;;;;;10.70;7.00;;;;;;;;;;5066051;28;20191;-75
2020/12/08 13:37:17;;;;;;;10.87;7.27;;;;;;;;;;5067933;28;20574;-75
2020/12/08 13:39:43;;;;;;;10.53;7.50;;;;;;;;;;5069474;28;20213;-76
2020/12/08 13:42:11;;;;;;;11.03;7.33;;;;;;;;;;5060050;28;20206;-75
2020/12/08 13:44:37;;;;;;;10.33;8.20;;;;;;;;;;5072266;28;20286;-75
2020/12/08 13:47:04;;;;;;;8.90;7.10;;;;;;;;;;5066898;28;20203;-75
2020/12/08 13:49:31;;;;;;;9.17;7.33;;;;;;;;;;5071736;28;20198;-76
2020/12/08 13:51:58;;;;;;;8.70;6.70;;;;;;;;;;5067990;28;20284;-76
2020/12/08 13:54:25;;;;;;;7.20;6.40;;;;;;;;;;5069962;28;20287;-75
2020/12/08 13:56:51;;;;;;;7.67;6.60;;;;;;;;;;5062440;28;20209;-76
2020/12/08 13:59:19;;;;;;;8.23;6.37;;;;;;;;;;5072371;28;20216;-76
2020/12/08 14:01:46;;;;;;;8.23;6.77;;;;;;;;;;5056470;28;20280;-75
2020/12/08 14:04:12;;;;;;;8.70;6.87;;;;;;;;;;5060613;28;20207;-75
2020/12/08 14:06:43;;;;;;;9.30;6.90;;;;;;;;;;5073157;28;20751;-76
2020/12/08 14:09:09;;;;;;;7.07;6.13;;;;;;;;;;5073698;28;20195;-75
2020/12/08 14:11:36;;;;;;;9.43;6.50;;;;;;;;;;5072727;28;20283;-75
2020/12/08 14:14:03;;;;;;;4.80;3.80;;;;;;;;;;5068134;28;20297;-75
2020/12/08 14:16:31;;;;;;;4.03;2.90;;;;;;;;;;5071938;28;20216;-75
2020/12/08 14:18:57;;;;;;;2.80;2.30;;;;;;;;;;5065636;28;20232;-76
2020/12/08 14:21:24;;;;;;;2.40;1.97;;;;;;;;;;5061760;28;20296;-76